Time;durP1;ratioP1;P1;durP2;ratioP2;P2;SDS_P1;SDS_P2;PMS_P1;PMS_P2;Temp;Humidity;BMP_temperature;BMP_pressure;BME280_temperature;BME280_humidity;BME280_pressure;Samples;Min_cycle;Max_cycle;Signal;HPM_P1;HPM_P2
2023/02/26 00:01:26;;;;;;;3.60;2.20;;;4.40;84.20;;;;;;4951749;28;20524;-82
2023/02/26 00:03:59;;;;;;;6.70;3.10;;;4.30;84.80;;;;;;4949573;28;20492;-82
2023/02/26 00:06:30;;;;;;;5.63;2.17;;;4.10;85.30;;;;;;4949393;28;20468;-81
2023/02/26 00:08:57;;;;;;;5.10;1.80;;;4.10;86.00;;;;;;4950027;28;20496;-81
2023/02/26 00:11:25;;;;;;;5.83;2.60;;;4.10;86.30;;;;;;4950656;28;20465;-82
2023/02/26 00:14:04;;;;;;;4.43;2.57;;;4.30;86.80;;;;;;4951878;28;20520;-82
2023/02/26 00:16:34;;;;;;;4.30;2.83;;;4.40;85.90;;;;;;4952536;28;20452;-84
2023/02/26 00:19:05;;;;;;;3.20;2.00;;;4.30;85.80;;;;;;4952534;28;20955;-81
2023/02/26 00:21:34;;;;;;;5.20;2.10;;;4.30;86.10;;;;;;4952020;28;20456;-81
2023/02/26 00:24:05;;;;;;;3.50;1.90;;;4.30;86.50;;;;;;4954110;28;20477;-81
2023/02/26 00:26:35;;;;;;;6.80;2.93;;;4.30;86.70;;;;;;4954350;28;20533;-81
2023/02/26 00:29:10;;;;;;;3.80;2.30;;;4.30;86.80;;;;;;4952424;28;20453;-81
2023/02/26 00:31:40;;;;;;;2.43;2.10;;;4.30;87.20;;;;;;4956972;28;20472;-81
2023/02/26 00:34:11;;;;;;;5.10;2.00;;;4.50;86.90;;;;;;4952306;28;20469;-81
2023/02/26 00:36:44;;;;;;;3.70;2.37;;;4.60;86.50;;;;;;4950558;28;20605;-80
2023/02/26 00:39:37;;;;;;;5.90;1.80;;;4.70;85.70;;;;;;4953966;28;20477;-81
2023/02/26 00:42:04;;;;;;;6.80;2.00;;;4.60;85.20;;;;;;4957043;28;20458;-80
2023/02/26 00:44:32;;;;;;;3.83;2.50;;;4.70;85.60;;;;;;4958077;28;20484;-81
2023/02/26 00:47:08;;;;;;;6.13;1.70;;;4.70;85.00;;;;;;4967302;28;20441;-82
2023/02/26 00:50:04;;;;;;;4.10;2.10;;;4.90;84.60;;;;;;4971175;28;20464;-84
2023/02/26 00:52:53;;;;;;;5.80;2.40;;;4.60;84.80;;;;;;4944448;28;20548;-82
2023/02/26 00:55:22;;;;;;;2.40;1.97;;;4.70;85.40;;;;;;4982549;28;20489;-82
2023/02/26 00:57:49;;;;;;;3.70;1.60;;;4.60;85.70;;;;;;4965026;28;20453;-81
2023/02/26 01:00:17;;;;;;;3.43;1.60;;;4.50;86.10;;;;;;4959842;28;20449;-81
2023/02/26 01:02:45;;;;;;;4.30;1.80;;;4.70;86.30;;;;;;4960623;28;20456;-81
2023/02/26 01:05:12;;;;;;;2.83;1.60;;;4.60;86.20;;;;;;4955885;28;20501;-80
2023/02/26 01:07:45;;;;;;;3.07;1.70;;;4.70;86.20;;;;;;4957704;28;20461;-81
2023/02/26 01:10:13;;;;;;;3.30;1.60;;;4.70;86.20;;;;;;4952947;28;20453;-82
2023/02/26 01:12:41;;;;;;;2.90;1.60;;;4.60;85.90;;;;;;4945664;28;20517;-81
2023/02/26 01:15:09;;;;;;;4.87;2.43;;;4.40;86.70;;;;;;4950143;28;20666;-81
2023/02/26 01:17:47;;;;;;;3.30;2.47;;;4.40;87.50;;;;;;4946886;28;20474;-81
2023/02/26 01:20:25;;;;;;;4.30;1.97;;;4.50;88.00;;;;;;4946639;28;20452;-82
2023/02/26 01:22:56;;;;;;;3.10;1.83;;;4.60;87.40;;;;;;4950496;28;20472;-81
2023/02/26 01:25:33;;;;;;;5.20;2.00;;;4.40;87.70;;;;;;4955918;28;21650;-82
2023/02/26 01:28:00;;;;;;;8.17;1.77;;;4.50;87.70;;;;;;4963800;28;20483;-81
2023/02/26 01:30:28;;;;;;;3.47;1.37;;;4.50;88.00;;;;;;4962369;28;20463;-82
2023/02/26 01:33:15;;;;;;;5.23;2.07;;;4.50;88.30;;;;;;4964103;28;22640;-81
2023/02/26 01:35:49;;;;;;;2.03;1.73;;;4.40;89.00;;;;;;4946189;28;20519;-81
2023/02/26 01:38:33;;;;;;;4.67;1.60;;;4.50;88.30;;;;;;4943668;28;20947;-81
2023/02/26 01:41:06;;;;;;;6.87;1.77;;;4.60;88.00;;;;;;4959117;28;20456;-81
2023/02/26 01:43:36;;;;;;;3.47;1.70;;;4.40;87.80;;;;;;4958411;28;20475;-81
2023/02/26 01:46:42;;;;;;;2.90;1.33;;;4.40;88.80;;;;;;4944256;28;20502;-81
2023/02/26 01:49:14;;;;;;;3.40;1.67;;;4.10;89.00;;;;;;4944192;28;20477;-82
2023/02/26 01:51:49;;;;;;;3.60;2.27;;;4.00;90.10;;;;;;4944246;28;20453;-81
2023/02/26 01:54:20;;;;;;;3.93;1.17;;;4.20;90.50;;;;;;4959491;28;20566;-82
2023/02/26 01:57:07;;;;;;;7.07;1.57;;;4.00;90.50;;;;;;4960293;28;20457;-81
2023/02/26 01:59:38;;;;;;;3.93;1.57;;;4.20;90.60;;;;;;4950869;28;20457;-81
2023/02/26 02:02:07;;;;;;;3.10;1.57;;;4.10;90.40;;;;;;4955924;28;20536;-81
2023/02/26 02:04:37;;;;;;;3.30;2.63;;;3.90;90.40;;;;;;4957200;28;20514;-82
2023/02/26 02:07:09;;;;;;;3.83;1.73;;;3.90;90.70;;;;;;4977968;28;20465;-81
2023/02/26 02:09:42;;;;;;;5.70;2.00;;;4.00;91.00;;;;;;4963829;28;20557;-82
2023/02/26 02:12:33;;;;;;;4.03;1.93;;;4.10;90.80;;;;;;4962755;28;20527;-82
2023/02/26 02:15:10;;;;;;;2.87;1.27;;;4.20;90.80;;;;;;4944478;28;20480;-81
2023/02/26 02:17:49;;;;;;;3.17;1.13;;;4.40;90.50;;;;;;4943220;28;20531;-82
2023/02/26 02:20:25;;;;;;;4.87;1.70;;;4.40;90.00;;;;;;4944196;28;20483;-81
2023/02/26 02:22:54;;;;;;;4.10;2.00;;;4.40;90.10;;;;;;4944297;28;20477;-81
2023/02/26 02:25:38;;;;;;;3.40;1.63;;;4.40;90.10;;;;;;4946190;28;20484;-81
2023/02/26 02:28:36;;;;;;;1.77;1.30;;;4.50;90.10;;;;;;4946536;28;20464;-83
2023/02/26 02:31:12;;;;;;;2.40;1.50;;;4.50;89.50;;;;;;4956299;28;20464;-83
2023/02/26 02:33:49;;;;;;;2.60;1.60;;;4.40;89.30;;;;;;4944877;28;21529;-82
2023/02/26 02:36:35;;;;;;;2.80;1.90;;;4.30;89.50;;;;;;4947663;28;20468;-81
2023/02/26 02:39:12;;;;;;;4.47;1.50;;;4.20;89.90;;;;;;4964022;28;20580;-82
2023/02/26 02:41:48;;;;;;;3.07;1.43;;;4.10;90.10;;;;;;4949135;28;20523;-82
2023/02/26 02:44:35;;;;;;;1.67;1.23;;;4.10;90.60;;;;;;4950784;28;21089;-82
2023/02/26 02:47:12;;;;;;;4.30;1.77;;;4.10;90.60;;;;;;4950330;28;20456;-82
2023/02/26 02:49:51;;;;;;;3.93;1.63;;;3.90;90.60;;;;;;4948282;28;20459;-82
2023/02/26 02:52:46;;;;;;;3.10;1.50;;;4.00;90.90;;;;;;4948070;28;20476;-83
2023/02/26 02:55:26;;;;;;;5.83;1.73;;;4.00;90.90;;;;;;4930167;28;20503;-82
2023/02/26 02:58:16;;;;;;;2.73;1.50;;;3.70;91.00;;;;;;4951888;28;20456;-82
2023/02/26 03:01:06;;;;;;;2.33;1.37;;;3.80;91.80;;;;;;4951972;28;21080;-83
2023/02/26 03:04:04;;;;;;;1.83;1.60;;;3.80;91.90;;;;;;4947697;28;20460;-82
2023/02/26 03:06:40;;;;;;;2.73;1.50;;;3.70;92.10;;;;;;4944614;28;20452;-82
2023/02/26 03:09:24;;;;;;;5.70;1.90;;;3.90;92.20;;;;;;4966842;28;20469;-83
2023/02/26 03:11:58;;;;;;;2.60;1.17;;;3.90;91.80;;;;;;4982506;28;20471;-83
2023/02/26 03:14:29;;;;;;;4.90;1.70;;;3.80;91.40;;;;;;4957623;28;20831;-83
2023/02/26 03:17:25;;;;;;;1.53;1.00;;;3.70;91.80;;;;;;4950527;28;20467;-83
2023/02/26 03:20:10;;;;;;;5.00;1.50;;;3.70;91.80;;;;;;4945837;28;20500;-83
2023/02/26 03:22:56;;;;;;;2.80;1.20;;;3.80;91.80;;;;;;4948051;28;20485;-83
2023/02/26 03:25:35;;;;;;;4.93;1.00;;;3.80;92.00;;;;;;4960292;28;20493;-82
2023/02/26 03:28:28;;;;;;;2.40;1.20;;;3.60;91.80;;;;;;4945495;28;20506;-82
2023/02/26 03:30:58;;;;;;;7.13;1.90;;;3.60;92.00;;;;;;4944603;28;21216;-82
2023/02/26 03:33:37;;;;;;;1.77;1.40;;;3.80;92.00;;;;;;4945377;28;20540;-82
2023/02/26 03:36:24;;;;;;;3.83;1.40;;;3.90;92.30;;;;;;4944639;28;20461;-82
2023/02/26 03:39:11;;;;;;;4.70;1.30;;;3.70;92.50;;;;;;4946860;28;20463;-82
2023/02/26 03:42:10;;;;;;;2.90;1.20;;;3.80;92.40;;;;;;4959812;28;20483;-82
2023/02/26 03:44:44;;;;;;;1.47;1.17;;;3.80;92.10;;;;;;4961024;28;20477;-83
2023/02/26 03:47:18;;;;;;;4.00;1.20;;;3.70;91.90;;;;;;4943438;28;20432;-82
2023/02/26 03:50:04;;;;;;;3.87;1.00;;;3.60;91.70;;;;;;4941683;28;21310;-82
2023/02/26 03:52:52;;;;;;;2.27;1.53;;;3.70;91.40;;;;;;4947914;28;20456;-82
2023/02/26 03:55:54;;;;;;;2.60;1.30;;;3.70;91.30;;;;;;4955253;28;20518;-83
2023/02/26 03:58:25;;;;;;;5.67;2.20;;;3.50;91.50;;;;;;4931623;28;20460;-82
2023/02/26 04:01:17;;;;;;;2.00;1.23;;;3.40;92.00;;;;;;4944692;28;20457;-82
2023/02/26 04:04:22;;;;;;;2.57;1.40;;;3.50;92.20;;;;;;4947728;28;20484;-83
2023/02/26 04:06:59;;;;;;;2.30;1.40;;;3.50;92.70;;;;;;4946055;28;20475;-83
2023/02/26 04:09:47;;;;;;;1.70;1.27;;;3.50;92.40;;;;;;4943641;28;20469;-83
2023/02/26 04:12:38;;;;;;;2.30;1.20;;;3.60;92.00;;;;;;4945103;28;20473;-84
2023/02/26 04:15:09;;;;;;;2.20;1.30;;;3.50;91.60;;;;;;4948395;28;20477;-81
2023/02/26 04:17:49;;;;;;;2.30;1.00;;;3.50;91.60;;;;;;4947068;28;20456;-81
2023/02/26 04:20:34;;;;;;;1.60;1.17;;;3.40;91.80;;;;;;4947304;28;20508;-82
2023/02/26 04:23:13;;;;;;;2.20;1.20;;;3.40;92.10;;;;;;4952277;28;20445;-81
2023/02/26 04:25:45;;;;;;;1.77;1.27;;;3.60;91.50;;;;;;4957425;28;20476;-80
2023/02/26 04:28:15;;;;;;;2.60;1.13;;;3.60;90.70;;;;;;4942159;28;20468;-81
2023/02/26 04:30:54;;;;;;;1.77;1.30;;;3.40;90.80;;;;;;4943304;28;20451;-82
2023/02/26 04:36:43;;;;;;;1.50;1.13;;;3.10;91.60;;;;;;4976832;28;20493;-83
2023/02/26 04:39:31;;;;;;;1.00;0.90;;;3.20;91.90;;;;;;4971681;28;20454;-83
2023/02/26 04:42:03;;;;;;;2.77;1.10;;;3.40;91.80;;;;;;4991198;28;20479;-81
2023/02/26 04:44:33;;;;;;;5.80;1.67;;;3.50;91.60;;;;;;4973109;28;20460;-81
2023/02/26 04:47:15;;;;;;;3.13;1.37;;;3.30;91.10;;;;;;4964606;28;20460;-82
2023/02/26 04:49:47;;;;;;;2.97;1.27;;;3.30;90.90;;;;;;4983142;28;20461;-82
2023/02/26 04:52:32;;;;;;;1.83;1.50;;;3.40;90.90;;;;;;4973827;28;20476;-83
2023/02/26 04:55:11;;;;;;;2.27;1.10;;;3.30;90.70;;;;;;4954295;28;20492;-81
2023/02/26 04:57:47;;;;;;;9.03;1.43;;;3.40;90.80;;;;;;4956116;28;20457;-81
2023/02/26 05:00:19;;;;;;;3.43;1.03;;;3.30;90.50;;;;;;4964995;28;20447;-81
2023/02/26 05:02:46;;;;;;;2.97;1.40;;;3.20;90.60;;;;;;4966146;28;20459;-81
2023/02/26 05:05:14;;;;;;;3.40;1.10;;;3.20;91.00;;;;;;4957642;28;20895;-83
2023/02/26 05:07:46;;;;;;;10.00;2.10;;;3.40;91.00;;;;;;4971092;28;20460;-81
2023/02/26 05:10:16;;;;;;;3.00;1.10;;;3.40;91.10;;;;;;4970605;28;20467;-79
2023/02/26 05:12:46;;;;;;;1.57;1.33;;;3.50;90.90;;;;;;4967785;28;20559;-82
2023/02/26 05:15:19;;;;;;;1.43;1.33;;;3.50;90.70;;;;;;4965312;28;20515;-83
2023/02/26 05:17:54;;;;;;;2.90;1.27;;;3.40;90.60;;;;;;4953120;28;20537;-82
2023/02/26 05:20:24;;;;;;;3.13;1.60;;;3.20;90.80;;;;;;4955031;28;20548;-82
2023/02/26 05:23:04;;;;;;;4.73;1.50;;;3.20;90.80;;;;;;4949301;28;20471;-83
2023/02/26 05:25:41;;;;;;;3.10;1.70;;;3.20;90.60;;;;;;4954086;28;20495;-81
2023/02/26 05:28:14;;;;;;;2.37;1.30;;;3.30;90.30;;;;;;4968486;28;20452;-82
2023/02/26 05:30:43;;;;;;;2.40;1.47;;;3.30;90.20;;;;;;4957159;28;20558;-82
2023/02/26 05:33:20;;;;;;;3.20;1.50;;;3.20;90.20;;;;;;4961544;28;20548;-81
2023/02/26 05:35:53;;;;;;;4.43;1.63;;;3.20;90.40;;;;;;4950229;28;20495;-82
2023/02/26 05:38:20;;;;;;;3.07;1.80;;;3.10;90.40;;;;;;4952792;28;20613;-82
2023/02/26 05:40:54;;;;;;;2.53;2.17;;;3.00;90.80;;;;;;4952390;28;20540;-80
2023/02/26 05:43:32;;;;;;;2.93;1.37;;;3.10;91.20;;;;;;4967310;28;20528;-80
2023/02/26 05:46:17;;;;;;;4.47;1.00;;;3.00;90.90;;;;;;4973084;28;20470;-81
2023/02/26 05:48:45;;;;;;;5.27;1.70;;;2.90;91.20;;;;;;4963524;28;20460;-82
2023/02/26 05:51:24;;;;;;;2.30;1.40;;;2.70;91.50;;;;;;4960170;28;20492;-83
2023/02/26 05:53:53;;;;;;;2.40;1.20;;;2.90;91.70;;;;;;4966176;28;20511;-81
2023/02/26 05:56:27;;;;;;;2.77;1.20;;;2.90;91.60;;;;;;4949103;28;20971;-82
2023/02/26 05:59:05;;;;;;;1.20;1.20;;;3.20;91.50;;;;;;4952293;28;21187;-82
2023/02/26 06:01:36;;;;;;;1.43;1.33;;;3.20;91.20;;;;;;4943286;28;20461;-82
2023/02/26 06:07:58;;;;;;;2.90;1.40;;;3.20;91.00;;;;;;5385380;23;20539;-81
2023/02/26 06:10:31;;;;;;;4.00;1.47;;;3.30;91.10;;;;;;4981031;28;20447;-81
2023/02/26 06:13:04;;;;;;;4.63;1.47;;;3.20;91.40;;;;;;4967564;28;20553;-83
2023/02/26 06:15:31;;;;;;;2.23;1.60;;;3.00;91.50;;;;;;4951980;28;20472;-82
2023/02/26 06:18:02;;;;;;;1.70;1.10;;;3.10;91.50;;;;;;5186906;23;20455;-81
2023/02/26 06:21:11;;;;;;;1.37;1.20;;;2.80;91.30;;;;;;4982858;28;20471;-82
2023/02/26 06:29:12;;;;;;;1.40;1.10;;;2.70;91.50;;;;;;4964641;23;20522;-82
2023/02/26 06:31:40;;;;;;;1.27;1.00;;;2.60;91.80;;;;;;5123501;23;20496;-82
2023/02/26 06:34:07;;;;;;;2.30;1.53;;;2.80;92.10;;;;;;4944216;28;20939;-82
2023/02/26 06:39:12;;;;;;;1.37;1.10;;;2.90;91.30;;;;;;5009415;23;20479;-81
2023/02/26 06:41:47;;;;;;;4.07;1.80;;;3.00;91.50;;;;;;4941319;28;20445;-81
2023/02/26 06:44:20;;;;;;;3.03;1.47;;;3.10;91.20;;;;;;4948609;28;20489;-81
2023/02/26 06:47:03;;;;;;;2.07;1.50;;;2.90;91.30;;;;;;4971402;28;20481;-82
2023/02/26 06:54:59;;;;;;;5.43;1.80;;;3.10;91.80;;;;;;4131175;23;20544;-79
2023/02/26 06:57:27;;;;;;;1.83;1.67;;;3.20;91.10;;;;;;4942204;29;20460;-82
2023/02/26 06:59:58;;;;;;;1.90;1.70;;;3.00;91.30;;;;;;4941906;29;20453;-82
2023/02/26 07:02:32;;;;;;;4.23;1.70;;;3.00;91.70;;;;;;4941434;29;20529;-82
2023/02/26 07:05:12;;;;;;;3.70;1.70;;;3.00;91.70;;;;;;4940837;29;20469;-83
2023/02/26 07:07:40;;;;;;;2.00;1.80;;;2.90;91.90;;;;;;4942291;29;20450;-82
2023/02/26 07:10:15;;;;;;;2.20;1.90;;;3.20;91.90;;;;;;4952639;28;20473;-83
2023/02/26 07:12:48;;;;;;;7.20;2.27;;;3.20;91.70;;;;;;4949536;28;20462;-81
2023/02/26 07:15:17;;;;;;;1.80;1.70;;;3.10;91.90;;;;;;4969444;28;20561;-82
2023/02/26 07:20:28;;;;;;;4.23;2.27;;;3.00;92.10;;;;;;5025101;23;20503;-82
2023/02/26 07:23:07;;;;;;;7.00;3.33;;;3.10;92.10;;;;;;4982170;28;20455;-79
2023/02/26 07:25:40;;;;;;;3.07;1.80;;;3.20;92.00;;;;;;5028748;23;20496;-82
2023/02/26 07:28:08;;;;;;;2.53;2.20;;;3.20;91.80;;;;;;5031240;23;21322;-81
2023/02/26 07:30:36;;;;;;;1.90;1.80;;;3.10;91.70;;;;;;4967345;28;20452;-82
2023/02/26 07:33:14;;;;;;;3.17;1.90;;;4.20;93.50;;;;;;4969408;28;20476;-82
2023/02/26 07:38:36;;;;;;;4.13;1.73;;;9.10;79.00;;;;;;4963658;28;20475;-83
2023/02/26 07:41:02;;;;;;;4.20;2.00;;;10.80;65.30;;;;;;4952200;29;20531;-82
2023/02/26 07:43:29;;;;;;;2.83;1.73;;;11.50;60.90;;;;;;4955944;29;20472;-83
2023/02/26 07:45:56;;;;;;;3.30;2.00;;;12.60;57.60;;;;;;4967767;28;20485;-82
2023/02/26 07:48:23;;;;;;;2.80;1.40;;;12.50;54.70;;;;;;4952905;28;20450;-83
2023/02/26 07:50:52;;;;;;;5.90;2.13;;;12.50;55.10;;;;;;4929181;28;20538;-83
2023/02/26 07:53:19;;;;;;;3.43;1.80;;;13.50;53.00;;;;;;4929470;29;20462;-83
2023/02/26 07:55:46;;;;;;;1.83;1.70;;;12.50;52.70;;;;;;4926374;29;20497;-83
2023/02/26 07:58:13;;;;;;;2.20;1.80;;;11.50;54.10;;;;;;4925000;29;20513;-83
2023/02/26 08:00:40;;;;;;;1.93;1.83;;;11.00;55.70;;;;;;4933449;29;20463;-84
2023/02/26 08:03:07;;;;;;;2.50;2.30;;;10.40;56.70;;;;;;4930450;29;20537;-83
2023/02/26 08:05:34;;;;;;;4.33;2.30;;;10.20;57.90;;;;;;4930220;29;20480;-84
2023/02/26 08:08:02;;;;;;;2.47;2.10;;;9.90;59.10;;;;;;4929992;29;20457;-83
2023/02/26 08:10:29;;;;;;;2.93;1.70;;;9.90;59.30;;;;;;4935347;29;20462;-84
2023/02/26 08:12:56;;;;;;;3.63;1.90;;;9.80;59.80;;;;;;4932678;29;20501;-83
2023/02/26 08:15:24;;;;;;;2.80;2.17;;;9.80;60.20;;;;;;4932858;29;20486;-82
2023/02/26 08:17:57;;;;;;;3.17;2.40;;;9.60;59.10;;;;;;4954188;28;20466;-82
2023/02/26 08:20:26;;;;;;;2.37;2.17;;;8.20;59.00;;;;;;4942887;29;20477;-83
2023/02/26 08:22:52;;;;;;;2.03;1.73;;;7.20;62.40;;;;;;4944805;29;20471;-83
2023/02/26 08:25:22;;;;;;;3.30;2.00;;;6.60;65.80;;;;;;4956929;28;20508;-82
2023/02/26 08:27:52;;;;;;;2.30;1.87;;;6.20;68.30;;;;;;4957536;28;20474;-82
2023/02/26 08:30:22;;;;;;;3.80;1.70;;;5.90;70.90;;;;;;4960487;28;20450;-82
2023/02/26 08:32:57;;;;;;;3.43;2.43;;;5.60;73.50;;;;;;4962713;28;20466;-83
2023/02/26 08:35:24;;;;;;;2.67;1.70;;;5.50;74.90;;;;;;4947415;29;20538;-82
2023/02/26 08:37:51;;;;;;;1.67;1.50;;;5.30;75.80;;;;;;4939717;28;20473;-82
2023/02/26 08:40:27;;;;;;;1.80;1.70;;;5.10;77.60;;;;;;4934067;29;20951;-82
2023/02/26 08:42:59;;;;;;;4.17;2.10;;;4.70;79.00;;;;;;4936379;29;20489;-82
2023/02/26 08:45:28;;;;;;;2.07;1.87;;;4.60;81.20;;;;;;4934258;29;20477;-82
2023/02/26 08:47:55;;;;;;;5.70;2.43;;;4.70;82.10;;;;;;4940637;29;20464;-83
2023/02/26 08:50:24;;;;;;;4.20;2.30;;;4.60;82.20;;;;;;4952608;28;20882;-82
2023/02/26 08:52:57;;;;;;;5.43;2.47;;;4.70;82.10;;;;;;4939409;29;21016;-83
2023/02/26 08:55:24;;;;;;;2.17;1.77;;;4.50;82.10;;;;;;4952907;28;20482;-83
2023/02/26 08:57:57;;;;;;;2.10;1.77;;;4.80;82.30;;;;;;4939384;29;20497;-82
2023/02/26 09:00:26;;;;;;;2.40;1.70;;;4.60;81.90;;;;;;4939953;29;20476;-82
2023/02/26 09:03:00;;;;;;;2.20;1.87;;;4.70;82.90;;;;;;4947893;28;20453;-83
2023/02/26 09:05:28;;;;;;;1.87;1.73;;;4.50;83.10;;;;;;4952431;28;20474;-83
2023/02/26 09:08:03;;;;;;;3.00;1.43;;;4.70;83.30;;;;;;4950923;28;20450;-82
2023/02/26 09:10:34;;;;;;;5.50;2.10;;;4.50;82.80;;;;;;4968094;28;20462;-83
2023/02/26 09:13:11;;;;;;;3.80;1.63;;;4.70;83.50;;;;;;4950061;28;20474;-82
2023/02/26 09:15:55;;;;;;;1.50;1.40;;;4.70;82.80;;;;;;4939782;28;20497;-82
2023/02/26 09:18:50;;;;;;;3.50;1.30;;;4.60;83.00;;;;;;4929081;29;20450;-82
2023/02/26 09:21:31;;;;;;;2.97;1.17;;;4.90;81.90;;;;;;4941349;28;20442;-83
2023/02/26 09:24:10;;;;;;;1.83;1.73;;;5.20;80.50;;;;;;4934239;29;20481;-83
2023/02/26 09:26:38;;;;;;;1.60;1.50;;;5.10;79.60;;;;;;4923736;29;20458;-82
2023/02/26 09:29:07;;;;;;;2.73;1.30;;;5.20;79.30;;;;;;4922617;28;20542;-84
2023/02/26 09:31:50;;;;;;;2.33;1.50;;;5.10;79.40;;;;;;4940065;28;20462;-82
2023/02/26 09:34:23;;;;;;;2.93;1.30;;;5.00;79.70;;;;;;4925544;29;20493;-84
2023/02/26 09:37:04;;;;;;;1.00;0.90;;;5.00;80.10;;;;;;4924869;29;20467;-82
2023/02/26 09:39:36;;;;;;;1.90;1.43;;;5.00;80.00;;;;;;4930527;29;20466;-83
2023/02/26 09:42:55;;;;;;;2.90;1.23;;;5.40;78.30;;;;;;4931882;29;20438;-83
2023/02/26 09:45:37;;;;;;;2.53;0.90;;;5.40;77.10;;;;;;4940663;29;20493;-82
2023/02/26 09:48:19;;;;;;;1.07;0.97;;;5.40;76.80;;;;;;4934709;29;20466;-84
2023/02/26 09:50:55;;;;;;;3.83;1.60;;;5.40;76.00;;;;;;4931457;29;20537;-84
2023/02/26 09:53:37;;;;;;;2.40;1.20;;;5.40;73.90;;;;;;4935762;29;20460;-83
2023/02/26 09:56:41;;;;;;;;;;;;;;;;;;;;;
2023/02/26 09:59:13;;;;;;;1.63;0.80;;;5.40;70.90;;;;;;4946658;29;20437;-83
2023/02/26 10:01:57;;;;;;;2.23;1.27;;;5.70;70.30;;;;;;4949396;28;20473;-84
2023/02/26 10:04:46;;;;;;;3.07;0.90;;;7.00;70.90;;;;;;4951280;28;20493;-83
2023/02/26 10:07:40;;;;;;;3.00;0.90;;;8.60;64.10;;;;;;4935001;29;20443;-83
2023/02/26 10:10:23;;;;;;;2.30;1.10;;;9.70;58.10;;;;;;4941475;28;20460;-81
2023/02/26 10:12:54;;;;;;;2.20;1.10;;;10.70;52.60;;;;;;4933861;29;20466;-81
2023/02/26 10:15:48;;;;;;;1.63;1.00;;;10.90;51.30;;;;;;4936599;29;20591;-83
2023/02/26 10:18:35;;;;;;;1.83;1.00;;;11.40;49.90;;;;;;4952168;28;20460;-83
2023/02/26 10:21:33;;;;;;;2.30;1.00;;;10.70;49.40;;;;;;4943037;29;20520;-82
2023/02/26 10:24:27;;;;;;;1.20;1.10;;;10.10;50.00;;;;;;4935618;29;20482;-82
2023/02/26 10:27:19;;;;;;;1.10;1.00;;;9.50;52.60;;;;;;4931042;29;20497;-82
2023/02/26 10:30:38;;;;;;;1.77;1.20;;;9.20;53.70;;;;;;4927688;29;21138;-82
2023/02/26 10:33:29;;;;;;;1.97;0.80;;;9.30;52.80;;;;;;4941596;28;20446;-82
2023/02/26 10:36:27;;;;;;;;;;;;;;;;;;;;;
2023/02/26 10:39:32;;;;;;;0.70;0.70;;;8.10;53.50;;;;;;4922709;29;20610;-83
2023/02/26 10:42:44;;;;;;;1.27;1.10;;;7.80;55.10;;;;;;4928785;29;20434;-82
2023/02/26 10:46:12;;;;;;;1.63;0.83;;;7.60;55.80;;;;;;4970255;23;20499;-83
2023/02/26 10:49:24;;;;;;;1.33;1.00;;;7.70;55.80;;;;;;4963460;28;20542;-82
2023/02/26 10:56:19;;;;;;;2.23;0.80;;;7.60;57.10;;;;;;4968701;28;20484;-85
2023/02/26 10:59:15;;;;;;;;;;;;;;;;;;;;;
2023/02/26 11:02:04;;;;;;;0.60;0.60;;;7.40;55.80;;;;;;4965628;28;20444;-83
2023/02/26 11:04:48;;;;;;;1.70;0.90;;;7.50;56.90;;;;;;4956475;28;20971;-84
2023/02/26 11:07:58;;;;;;;1.43;0.90;;;7.50;56.30;;;;;;4954899;28;20491;-82
2023/02/26 11:11:10;;;;;;;1.00;0.73;;;7.40;54.90;;;;;;4947724;28;20441;-83
2023/02/26 11:14:02;;;;;;;0.87;0.60;;;7.40;54.60;;;;;;4946673;28;20469;-84
2023/02/26 11:17:03;;;;;;;1.00;0.90;;;7.30;55.50;;;;;;4950805;28;20488;-84
2023/02/26 11:19:40;;;;;;;0.80;0.70;;;7.40;55.50;;;;;;4946135;28;21257;-83
2023/02/26 11:22:47;;;;;;;1.33;1.00;;;7.60;55.50;;;;;;4957944;28;20448;-84
2023/02/26 11:25:42;;;;;;;0.50;0.50;;;7.30;55.90;;;;;;4962915;28;20456;-81
2023/02/26 11:28:32;;;;;;;0.60;0.60;;;7.40;56.20;;;;;;4956933;28;20456;-82
2023/02/26 11:31:33;;;;;;;1.23;0.63;;;7.30;56.20;;;;;;4948292;28;20452;-82
2023/02/26 11:34:39;;;;;;;1.10;0.73;;;7.10;56.40;;;;;;4945887;28;20487;-84
2023/02/26 11:37:58;;;;;;;1.13;0.63;;;7.20;56.60;;;;;;4943606;28;20457;-85
2023/02/26 11:41:22;;;;;;;1.27;0.73;;;7.10;56.60;;;;;;4947366;28;20432;-85
2023/02/26 11:44:39;;;;;;;1.40;0.80;;;7.00;57.20;;;;;;4937391;28;20449;-84
2023/02/26 11:47:43;;;;;;;1.00;0.90;;;6.70;57.10;;;;;;4964388;28;20449;-83
2023/02/26 11:50:51;;;;;;;1.90;1.20;;;6.60;57.40;;;;;;4946713;28;20532;-83
2023/02/26 11:54:03;;;;;;;2.40;0.80;;;6.60;56.90;;;;;;4958087;28;20464;-85
2023/02/26 11:57:11;;;;;;;0.73;0.60;;;6.70;55.90;;;;;;4945918;28;20534;-84
2023/02/26 12:00:05;;;;;;;1.27;0.60;;;6.60;55.90;;;;;;4945260;28;20512;-83
2023/02/26 12:03:12;;;;;;;1.40;0.60;;;6.90;56.40;;;;;;4963221;28;20448;-83
2023/02/26 12:06:04;;;;;;;1.70;0.70;;;7.30;54.70;;;;;;4947347;28;20480;-83
2023/02/26 12:08:51;;;;;;;0.80;0.80;;;7.20;54.80;;;;;;4935819;28;20469;-83
2023/02/26 12:15:32;;;;;;;1.13;0.70;;;6.90;54.40;;;;;;4976125;28;20484;-83
2023/02/26 12:18:54;;;;;;;0.70;0.70;;;6.90;55.60;;;;;;4961841;28;20439;-83
2023/02/26 12:22:13;;;;;;;2.10;0.70;;;6.90;54.10;;;;;;4904590;29;20469;-82
2023/02/26 12:25:39;;;;;;;1.17;0.60;;;6.80;53.10;;;;;;4979039;28;20456;-82
2023/02/26 12:29:31;;;;;;;1.73;0.93;;;6.90;53.60;;;;;;4965213;28;20445;-81
2023/02/26 12:32:43;;;;;;;1.10;1.00;;;6.90;53.20;;;;;;4975370;28;20512;-84
2023/02/26 12:35:59;;;;;;;2.97;1.47;;;6.70;54.00;;;;;;4902555;29;20502;-83
2023/02/26 12:38:57;;;;;;;0.90;0.90;;;6.70;53.80;;;;;;4959604;28;20458;-84
2023/02/26 12:41:55;;;;;;;1.97;1.10;;;7.00;53.50;;;;;;4962333;28;20445;-84
2023/02/26 12:45:02;;;;;;;2.60;1.10;;;7.00;51.90;;;;;;4962511;28;20448;-83
2023/02/26 12:47:55;;;;;;;3.00;0.97;;;7.00;52.80;;;;;;4945729;28;20742;-83
2023/02/26 12:51:11;;;;;;;0.80;0.63;;;7.00;53.00;;;;;;4967747;28;21036;-81
2023/02/26 12:54:39;;;;;;;2.00;0.93;;;7.00;51.80;;;;;;4940698;28;20600;-82
2023/02/26 12:57:49;;;;;;;1.00;0.70;;;7.20;52.20;;;;;;4935917;28;20471;-84
2023/02/26 13:00:44;;;;;;;0.63;0.63;;;7.40;52.30;;;;;;4940676;28;20461;-82
2023/02/26 13:03:45;;;;;;;4.13;1.07;;;7.30;51.70;;;;;;4942390;28;20457;-84
2023/02/26 13:07:11;;;;;;;1.77;0.73;;;7.50;51.00;;;;;;4942832;28;20496;-83
2023/02/26 13:10:16;;;;;;;1.40;0.63;;;7.40;51.10;;;;;;4918730;28;20508;-82
2023/02/26 13:14:16;;;;;;;1.17;0.83;;;7.50;51.90;;;;;;4936089;28;20539;-83
2023/02/26 13:17:29;;;;;;;1.17;0.60;;;7.60;52.40;;;;;;4882559;28;20494;-84
2023/02/26 13:20:23;;;;;;;0.80;0.80;;;7.40;53.80;;;;;;4952769;28;20474;-83
2023/02/26 13:23:57;;;;;;;1.13;0.80;;;7.40;54.80;;;;;;4931427;28;20488;-83
2023/02/26 13:30:37;;;;;;;1.33;0.80;;;7.20;54.70;;;;;;4964954;28;20541;-84
2023/02/26 13:33:48;;;;;;;1.07;0.90;;;7.50;53.10;;;;;;4956151;28;20428;-83
2023/02/26 13:36:43;;;;;;;3.47;1.90;;;7.30;53.70;;;;;;4966743;28;20568;-83
2023/02/26 13:39:46;;;;;;;7.40;3.73;;;7.10;52.20;;;;;;4968259;28;20488;-83
2023/02/26 13:42:52;;;;;;;1.37;1.10;;;7.60;52.80;;;;;;4972236;28;20446;-83
2023/02/26 13:45:39;;;;;;;0.60;0.60;;;7.60;52.20;;;;;;4949463;28;20480;-82
2023/02/26 13:48:56;;;;;;;;;;;;;;;;;;;;;
2023/02/26 13:52:00;;;;;;;2.20;1.00;;;8.30;50.60;;;;;;4968084;28;20520;-83
2023/02/26 13:54:58;;;;;;;;;;;;;;;;;;;;;
2023/02/26 13:58:47;;;;;;;2.60;0.60;;;8.10;50.20;;;;;;4967710;28;20501;-83
2023/02/26 14:01:48;;;;;;;3.37;1.20;;;8.10;50.20;;;;;;4969192;28;20492;-85
2023/02/26 14:05:02;;;;;;;1.80;1.10;;;8.10;50.20;;;;;;4969650;28;20562;-83
2023/02/26 14:08:12;;;;;;;1.20;1.07;;;8.20;49.80;;;;;;4960301;28;20955;-83
2023/02/26 14:11:31;;;;;;;1.90;0.70;;;8.00;50.10;;;;;;4959209;28;20466;-84
2023/02/26 14:14:51;;;;;;;2.03;1.60;;;7.70;50.90;;;;;;4961948;28;20511;-84
2023/02/26 14:17:57;;;;;;;1.73;0.80;;;7.80;51.60;;;;;;4921620;28;20492;-84
2023/02/26 14:21:06;;;;;;;;;;;;;;;;;;;;;
2023/02/26 14:24:36;;;;;;;0.60;0.60;;;7.50;51.80;;;;;;4970849;28;20503;-82
2023/02/26 14:27:22;;;;;;;1.03;0.80;;;7.30;51.30;;;;;;4956485;28;20463;-82
2023/02/26 14:30:23;;;;;;;2.37;0.73;;;7.20;51.40;;;;;;4954103;28;20452;-82
2023/02/26 14:33:35;;;;;;;1.17;0.83;;;7.10;51.50;;;;;;4952979;28;20464;-83
2023/02/26 14:40:27;;;;;;;1.53;0.90;;;7.20;51.50;;;;;;4978357;28;20494;-82
2023/02/26 14:47:40;;;;;;;;;;;;;;;;;;;;;
2023/02/26 14:51:27;;;;;;;0.60;0.60;;;7.10;52.00;;;;;;4963523;28;20458;-82
2023/02/26 14:54:26;;;;;;;0.80;0.80;;;7.10;52.60;;;;;;4962718;28;20456;-82
2023/02/26 14:57:32;;;;;;;1.37;1.27;;;7.00;53.50;;;;;;4961650;28;20512;-83
2023/02/26 15:00:51;;;;;;;3.50;1.03;;;6.80;53.40;;;;;;4976240;28;20455;-83
2023/02/26 15:04:27;;;;;;;0.53;0.53;;;6.90;53.00;;;;;;4955554;28;20468;-84
2023/02/26 15:07:27;;;;;;;4.00;0.80;;;7.00;53.10;;;;;;4978576;28;20456;-82
2023/02/26 15:10:19;;;;;;;0.87;0.80;;;7.10;52.80;;;;;;4979887;28;20444;-83
2023/02/26 15:35:35;;;;;;;0.80;0.77;;;6.80;53.10;;;;;;1038366;23;20753;-82
2023/02/26 15:38:54;;;;;;;1.90;1.00;;;6.70;53.10;;;;;;4979607;28;20601;-81
2023/02/26 15:42:00;;;;;;;1.60;0.70;;;6.60;53.20;;;;;;4947483;28;20478;-83
2023/02/26 15:45:50;;;;;;;1.40;0.80;;;6.60;53.70;;;;;;4928533;28;20470;-83
2023/02/26 15:52:46;;;;;;;1.30;0.90;;;6.60;53.30;;;;;;4912604;29;20468;-84